Time;durP1;ratioP1;P1;durP2;ratioP2;P2;SDS_P1;SDS_P2;PMS_P1;PMS_P2;Temp;Humidity;BMP_temperature;BMP_pressure;BME280_temperature;BME280_humidity;BME280_pressure;Samples;Min_cycle;Max_cycle;Signal;HPM_P1;HPM_P2
2023/07/23 00:01:29;;;;;;;;;;;16.10;99.90;;;;;;5059993;28;20635;-72
2023/07/23 00:03:56;;;;;;;;;;;16.80;99.90;;;;;;5070853;28;20395;-73
2023/07/23 00:06:23;;;;;;;;;;;16.80;99.90;;;;;;5091579;28;24138;-73
2023/07/23 00:08:49;;;;;;;;;;;16.50;99.90;;;;;;5053842;28;20138;-73
2023/07/23 00:11:16;;;;;;;;;;;16.60;99.90;;;;;;5071761;28;20304;-72
2023/07/23 00:13:43;;;;;;;;;;;17.00;99.90;;;;;;5086799;28;24075;-72
2023/07/23 00:16:10;;;;;;;;;;;17.60;99.90;;;;;;5091812;28;20011;-72
2023/07/23 00:18:37;;;;;;;;;;;18.10;99.90;;;;;;5080435;28;24060;-72
2023/07/23 00:21:04;;;;;;;;;;;18.10;99.90;;;;;;5086439;28;24072;-71
2023/07/23 00:23:30;;;;;;;;;;;18.30;99.90;;;;;;5090736;28;20053;-72
2023/07/23 00:25:57;;;;;;;;;;;18.30;99.90;;;;;;5091587;28;19908;-72
2023/07/23 00:28:24;;;;;;;;;;;18.40;99.90;;;;;;5091593;28;19904;-71
2023/07/23 00:30:51;;;;;;;;;;;18.50;99.90;;;;;;5091911;28;20361;-71
2023/07/23 00:33:20;;;;;;;;;;;18.60;99.90;;;;;;5091203;28;19918;-70
2023/07/23 00:35:47;;;;;;;;;;;18.60;99.90;;;;;;5091769;28;19962;-71
2023/07/23 00:38:14;;;;;;;;;;;18.50;99.90;;;;;;5091448;28;24064;-71
2023/07/23 00:40:41;;;;;;;;;;;19.00;99.90;;;;;;5091349;28;24061;-71
2023/07/23 00:43:09;;;;;;;;;;;19.00;99.90;;;;;;5091226;28;19923;-71
2023/07/23 00:45:36;;;;;;;;;;;18.80;99.90;;;;;;5091452;28;19903;-73
2023/07/23 00:48:03;;;;;;;;;;;19.10;99.90;;;;;;5083646;28;19912;-72
2023/07/23 00:50:30;;;;;;;;;;;19.40;99.90;;;;;;5084815;28;19995;-71
2023/07/23 00:52:57;;;;;;;;;;;19.40;99.90;;;;;;5090978;28;19908;-71
2023/07/23 00:55:24;;;;;;;;;;;19.60;99.90;;;;;;5072826;28;19908;-72
2023/07/23 00:57:50;;;;;;;;;;;19.90;99.90;;;;;;5074675;28;25147;-71
2023/07/23 01:00:17;;;;;;;;;;;20.10;99.90;;;;;;5082898;28;25061;-73
2023/07/23 01:02:44;;;;;;;;;;;20.10;99.90;;;;;;5089800;28;20385;-71
2023/07/23 01:05:11;;;;;;;;;;;20.00;99.90;;;;;;5088703;28;19912;-71
2023/07/23 01:07:39;;;;;;;;;;;20.00;99.90;;;;;;5090520;28;19908;-70
2023/07/23 01:10:09;;;;;;;;;;;20.20;99.90;;;;;;5072154;28;24090;-70
2023/07/23 01:12:37;;;;;;;;;;;20.20;99.90;;;;;;5091039;28;19904;-70
2023/07/23 01:15:06;;;;;;;;;;;20.50;99.90;;;;;;5090928;28;20058;-71
2023/07/23 01:17:34;;;;;;;;;;;20.50;99.90;;;;;;5091184;28;20107;-71
2023/07/23 01:20:05;;;;;;;;;;;20.90;99.90;;;;;;5090648;28;25047;-70
2023/07/23 01:22:36;;;;;;;;;;;20.60;99.90;;;;;;5091152;28;20129;-69
2023/07/23 01:25:04;;;;;;;;;;;21.20;99.90;;;;;;5091007;28;20460;-70
2023/07/23 01:27:31;;;;;;;;;;;21.40;99.90;;;;;;5090960;28;25112;-70
2023/07/23 01:29:58;;;;;;;;;;;21.70;99.90;;;;;;5091080;28;25121;-71
2023/07/23 01:32:25;;;;;;;;;;;22.10;99.90;;;;;;5091382;28;25078;-70
2023/07/23 01:34:52;;;;;;;;;;;22.30;99.90;;;;;;5090884;28;25055;-70
2023/07/23 01:37:19;;;;;;;;;;;22.40;99.90;;;;;;5091052;28;20427;-70
2023/07/23 01:39:46;;;;;;;;;;;22.10;99.90;;;;;;5090519;28;19975;-71
2023/07/23 01:42:13;;;;;;;;;;;22.20;99.90;;;;;;5090680;28;20135;-70
2023/07/23 01:44:40;;;;;;;;;;;22.30;99.90;;;;;;5090799;28;20474;-70
2023/07/23 01:47:07;;;;;;;;;;;22.10;99.90;;;;;;5090961;28;20421;-71
2023/07/23 01:49:34;;;;;;;;;;;21.80;99.90;;;;;;5091272;28;25067;-70
2023/07/23 01:52:01;;;;;;;;;;;21.80;99.90;;;;;;5091264;28;25125;-72
2023/07/23 01:54:27;;;;;;;;;;;22.10;99.90;;;;;;5089899;28;20710;-70
2023/07/23 01:56:55;;;;;;;;;;;22.60;99.90;;;;;;5090493;28;25136;-70
2023/07/23 01:59:22;;;;;;;;;;;22.40;99.90;;;;;;5090587;28;20453;-70
2023/07/23 02:01:49;;;;;;;;;;;22.70;99.90;;;;;;5090726;28;20144;-70
2023/07/23 02:04:16;;;;;;;;;;;22.90;99.90;;;;;;5090006;28;20111;-70
2023/07/23 02:06:43;;;;;;;;;;;23.30;99.90;;;;;;5090565;28;20105;-70
2023/07/23 02:09:10;;;;;;;;;;;23.90;99.90;;;;;;5090630;28;20079;-71
2023/07/23 02:11:37;;;;;;;;;;;23.70;99.90;;;;;;5090587;28;20102;-70
2023/07/23 02:14:03;;;;;;;;;;;24.00;98.50;;;;;;5089751;28;20111;-71
2023/07/23 02:16:30;;;;;;;;;;;23.90;99.90;;;;;;5093036;28;20094;-71
2023/07/23 02:18:58;;;;;;;;;;;23.90;99.90;;;;;;5093610;28;20089;-71
2023/07/23 02:21:25;;;;;;;;;;;23.70;99.90;;;;;;5094255;28;25130;-71
2023/07/23 02:23:52;;;;;;;;;;;23.30;98.80;;;;;;5093299;28;19964;-70
2023/07/23 02:26:18;;;;;;;;;;;23.20;99.90;;;;;;5093190;28;20333;-71
2023/07/23 02:28:45;;;;;;;;;;;23.40;99.20;;;;;;5092959;28;20102;-70
2023/07/23 02:31:12;;;;;;;;;;;23.60;97.70;;;;;;5093242;28;20105;-70
2023/07/23 02:33:39;;;;;;;;;;;23.80;99.90;;;;;;5093675;28;20036;-70
2023/07/23 02:36:06;;;;;;;;;;;23.80;96.10;;;;;;5075347;28;20435;-70
2023/07/23 02:38:33;;;;;;;;;;;23.90;97.30;;;;;;5094542;28;20097;-70
2023/07/23 02:41:00;;;;;;;;;;;24.20;90.80;;;;;;5093216;28;20112;-69
2023/07/23 02:43:27;;;;;;;;;;;24.40;81.10;;;;;;5092469;28;20150;-70
2023/07/23 02:45:54;;;;;;;;;;;24.40;86.00;;;;;;5092259;28;19991;-70
2023/07/23 02:48:20;;;;;;;;;;;24.90;85.50;;;;;;5092349;28;20118;-71
2023/07/23 02:50:47;;;;;;;;;;;24.50;85.10;;;;;;5093145;28;20777;-69
2023/07/23 02:53:14;;;;;;;;;;;24.60;76.80;;;;;;5092955;28;20008;-70
2023/07/23 02:55:41;;;;;;;;;;;24.50;84.30;;;;;;5092993;28;20105;-69
2023/07/23 02:58:08;;;;;;;;;;;24.20;77.40;;;;;;5093221;28;20137;-69
2023/07/23 03:00:37;;;;;;;;;;;24.50;81.40;;;;;;5092437;28;20555;-71
2023/07/23 03:03:06;;;;;;;;;;;24.50;77.00;;;;;;5073220;28;20005;-73
2023/07/23 03:05:35;;;;;;;;;;;23.20;80.20;;;;;;5089270;28;20090;-72
2023/07/23 03:08:02;;;;;;;;;;;22.40;83.20;;;;;;5092604;28;20120;-73
2023/07/23 03:10:32;;;;;;;;;;;22.70;90.90;;;;;;5092474;28;20086;-71
2023/07/23 03:12:59;;;;;;;;;;;22.30;87.00;;;;;;5103744;28;19970;-72
2023/07/23 03:15:26;;;;;;;;;;;21.70;87.00;;;;;;5105624;28;20093;-72
2023/07/23 03:17:53;;;;;;;;;;;21.00;90.20;;;;;;5089697;28;20503;-72
2023/07/23 03:20:20;;;;;;;;;;;20.50;91.60;;;;;;5083820;28;20084;-73
2023/07/23 03:22:47;;;;;;;;;;;19.90;95.70;;;;;;5073088;28;20591;-73
2023/07/23 03:25:14;;;;;;;;;;;19.60;98.20;;;;;;5072737;28;19956;-73
2023/07/23 03:27:41;;;;;;;;;;;19.50;99.90;;;;;;5073444;28;19959;-74
2023/07/23 03:30:08;;;;;;;;;;;19.10;99.50;;;;;;5092525;28;19998;-73
2023/07/23 03:32:35;;;;;;;;;;;18.80;99.90;;;;;;5092500;28;19914;-73
2023/07/23 03:35:02;;;;;;;;;;;18.60;99.90;;;;;;5093079;28;20314;-73
2023/07/23 03:37:28;;;;;;;;;;;19.70;99.90;;;;;;5075593;28;25059;-73
2023/07/23 03:39:55;;;;;;;;;;;20.70;99.60;;;;;;5093344;28;20532;-73
2023/07/23 03:42:23;;;;;;;;;;;21.40;96.30;;;;;;5093399;28;20471;-73
2023/07/23 03:44:50;;;;;;;;;;;21.80;93.70;;;;;;5094393;28;20087;-72
2023/07/23 03:47:18;;;;;;;;;;;22.60;89.80;;;;;;5094409;28;20161;-73
2023/07/23 03:49:46;;;;;;;;;;;23.10;89.90;;;;;;5088511;28;25092;-72
2023/07/23 03:52:13;;;;;;;;;;;23.60;85.40;;;;;;5093627;28;20097;-71
2023/07/23 03:54:40;;;;;;;;;;;23.80;81.90;;;;;;5093174;28;20151;-73
2023/07/23 03:57:07;;;;;;;;;;;22.90;79.20;;;;;;5094090;28;20079;-73
2023/07/23 03:59:37;;;;;;;;;;;22.00;80.00;;;;;;5082290;28;20077;-73
2023/07/23 04:02:05;;;;;;;;;;;21.50;87.70;;;;;;5073505;28;20035;-73
2023/07/23 04:04:32;;;;;;;;;;;21.60;90.10;;;;;;5074324;28;20089;-71
2023/07/23 04:06:59;;;;;;;;;;;20.90;91.00;;;;;;5074723;28;19963;-72
2023/07/23 04:09:26;;;;;;;;;;;20.30;93.10;;;;;;5079502;28;19963;-72
2023/07/23 04:11:54;;;;;;;;;;;19.90;93.30;;;;;;5091966;28;25058;-73
2023/07/23 04:14:20;;;;;;;;;;;19.50;95.50;;;;;;5092346;28;20099;-73
2023/07/23 04:16:48;;;;;;;;;;;19.10;96.70;;;;;;5091258;28;20076;-75
2023/07/23 04:19:15;;;;;;;;;;;18.80;99.00;;;;;;5091975;28;20481;-74
2023/07/23 04:21:41;;;;;;;;;;;18.60;99.90;;;;;;5091277;28;19947;-72
2023/07/23 04:24:12;;;;;;;;;;;18.40;99.90;;;;;;5091931;28;19989;-74
2023/07/23 04:26:40;;;;;;;;;;;18.20;99.90;;;;;;5092183;28;24108;-74
2023/07/23 04:29:08;;;;;;;;;;;18.10;99.90;;;;;;5073025;28;20024;-72
2023/07/23 04:31:35;;;;;;;;;;;18.00;99.90;;;;;;5091888;28;24102;-73
2023/07/23 04:34:02;;;;;;;;;;;18.10;99.90;;;;;;5091771;28;19977;-74
2023/07/23 04:36:28;;;;;;;;;;;18.40;99.90;;;;;;5091781;28;20438;-74
2023/07/23 04:38:55;;;;;;;;;;;19.20;99.90;;;;;;5091193;28;20372;-73
2023/07/23 04:41:23;;;;;;;;;;;20.10;97.40;;;;;;5091794;28;19964;-72
2023/07/23 04:43:50;;;;;;;;;;;20.80;94.60;;;;;;5090887;28;20088;-72
2023/07/23 04:46:17;;;;;;;;;;;21.30;91.90;;;;;;5091959;28;20111;-73
2023/07/23 04:48:43;;;;;;;;;;;21.20;89.90;;;;;;5087944;28;20105;-73
2023/07/23 04:51:10;;;;;;;;;;;21.10;86.70;;;;;;5091401;28;20225;-73
2023/07/23 04:53:37;;;;;;;;;;;20.90;84.20;;;;;;5091475;28;19998;-73
2023/07/23 04:56:04;;;;;;;;;;;20.30;86.60;;;;;;5073138;28;20091;-72
2023/07/23 04:58:31;;;;;;;;;;;19.80;91.70;;;;;;5091372;28;20075;-71
2023/07/23 05:01:01;;;;;;;;;;;19.20;95.20;;;;;;5090636;28;24090;-72
2023/07/23 05:03:27;;;;;;;;;;;19.00;97.30;;;;;;5090594;28;19927;-72
2023/07/23 05:05:54;;;;;;;;;;;18.70;99.90;;;;;;5091375;28;20039;-72
2023/07/23 05:08:21;;;;;;;;;;;18.70;99.90;;;;;;5091040;28;20179;-72
2023/07/23 05:10:48;;;;;;;;;;;18.90;99.90;;;;;;5091330;28;20009;-72
2023/07/23 05:13:15;;;;;;;;;;;19.10;99.90;;;;;;5071110;28;20054;-72
2023/07/23 05:15:42;;;;;;;;;;;19.40;99.90;;;;;;5070929;28;20093;-73
2023/07/23 05:18:08;;;;;;;;;;;19.70;99.90;;;;;;5084378;28;20150;-75
2023/07/23 05:20:35;;;;;;;;;;;19.70;99.80;;;;;;5091182;28;20120;-73
2023/07/23 05:23:02;;;;;;;;;;;19.60;98.00;;;;;;5091237;28;20089;-73
2023/07/23 05:25:28;;;;;;;;;;;19.60;99.10;;;;;;5090958;28;20092;-73
2023/07/23 05:27:55;;;;;;;;;;;19.70;97.40;;;;;;5091604;28;19977;-72
2023/07/23 05:30:23;;;;;;;;;;;19.70;98.40;;;;;;5091186;28;20100;-72
2023/07/23 05:32:50;;;;;;;;;;;19.50;98.70;;;;;;5091207;28;19974;-73
2023/07/23 05:35:16;;;;;;;;;;;19.40;99.60;;;;;;5091439;28;25109;-72
2023/07/23 05:37:43;;;;;;;;;;;19.20;99.90;;;;;;5090523;28;20607;-72
2023/07/23 05:40:10;;;;;;;;;;;19.00;99.90;;;;;;5090867;28;20466;-73
2023/07/23 05:42:36;;;;;;;;;;;18.70;99.90;;;;;;5090562;28;19916;-73
2023/07/23 05:45:03;;;;;;;;;;;18.40;99.90;;;;;;5091069;28;20066;-74
2023/07/23 05:47:30;;;;;;;;;;;18.30;99.90;;;;;;5090498;28;24081;-72
2023/07/23 05:49:57;;;;;;;;;;;18.00;99.90;;;;;;5091155;28;19912;-71
2023/07/23 05:52:24;;;;;;;;;;;17.80;99.90;;;;;;5094503;28;24074;-71
2023/07/23 05:54:50;;;;;;;;;;;17.60;99.90;;;;;;5094787;28;24075;-72
2023/07/23 05:57:17;;;;;;;;;;;17.50;99.90;;;;;;5094797;28;24080;-72
2023/07/23 05:59:44;;;;;;;;;;;17.30;99.90;;;;;;5094552;28;19933;-72
2023/07/23 06:02:10;;;;;;;;;;;17.20;99.90;;;;;;5094591;28;19916;-72
2023/07/23 06:04:39;;;;;;;;;;;17.00;99.90;;;;;;5094528;28;19911;-74
2023/07/23 06:07:06;;;;;;;;;;;16.90;99.90;;;;;;5093980;28;19960;-74
2023/07/23 06:09:32;;;;;;;;;;;16.80;99.90;;;;;;5094256;28;19908;-74
2023/07/23 06:11:59;;;;;;;;;;;16.70;99.90;;;;;;5094882;28;19952;-74
2023/07/23 06:14:26;;;;;;;;;;;16.60;99.90;;;;;;5094220;28;19908;-74
2023/07/23 06:16:53;;;;;;;;;;;16.60;99.90;;;;;;5094248;28;19908;-75
2023/07/23 06:19:19;;;;;;;;;;;16.50;99.90;;;;;;5076249;28;20371;-75
2023/07/23 06:21:46;;;;;;;;;;;16.40;99.90;;;;;;5094192;28;25107;-74
2023/07/23 06:24:13;;;;;;;;;;;16.30;99.90;;;;;;5094316;28;24115;-74
2023/07/23 06:26:39;;;;;;;;;;;16.20;99.90;;;;;;5094267;28;19911;-73
2023/07/23 06:29:06;;;;;;;;;;;16.20;99.90;;;;;;5093701;28;19947;-73
2023/07/23 06:31:33;;;;;;;;;;;16.10;99.90;;;;;;5094104;28;19908;-73
2023/07/23 06:33:59;;;;;;;;;;;16.10;99.90;;;;;;5093874;28;19908;-74
2023/07/23 06:36:26;;;;;;;;;;;15.90;99.90;;;;;;5075847;28;20010;-73
2023/07/23 06:38:53;;;;;;;;;;;15.80;99.90;;;;;;5093517;28;19912;-73
2023/07/23 06:41:19;;;;;;;;;;;15.70;99.90;;;;;;5075252;28;19930;-71
2023/07/23 06:43:46;;;;;;;;;;;15.60;99.90;;;;;;5093979;28;20086;-72
2023/07/23 06:46:17;;;;;;;;;;;15.40;99.90;;;;;;5093756;28;19908;-74
2023/07/23 06:48:43;;;;;;;;;;;15.40;99.90;;;;;;5093266;28;19964;-73
2023/07/23 06:51:10;;;;;;;;;;;15.30;99.90;;;;;;5093808;28;19915;-73
2023/07/23 06:53:37;;;;;;;;;;;15.20;99.90;;;;;;5093690;28;24059;-74
2023/07/23 06:56:04;;;;;;;;;;;15.20;99.90;;;;;;5093623;28;19927;-73
2023/07/23 07:01:34;;;;;;;;;;;15.10;99.90;;;;;;5092668;28;20135;-72
2023/07/23 07:04:01;;;;;;;;;;;15.00;99.90;;;;;;5093465;28;19957;-75
2023/07/23 07:06:27;;;;;;;;;;;14.90;99.90;;;;;;5093585;28;19998;-73
2023/07/23 07:08:54;;;;;;;;;;;14.80;99.90;;;;;;5093249;28;24060;-74
2023/07/23 07:11:21;;;;;;;;;;;14.70;99.90;;;;;;5093474;28;24060;-73
2023/07/23 07:13:47;;;;;;;;;;;14.60;99.90;;;;;;5093041;28;19977;-73
2023/07/23 07:16:16;;;;;;;;;;;14.60;99.90;;;;;;5093225;28;19915;-73
2023/07/23 07:18:43;;;;;;;;;;;14.50;99.90;;;;;;5092659;28;19950;-73
2023/07/23 07:21:09;;;;;;;;;;;14.30;99.90;;;;;;5093071;28;19943;-73
2023/07/23 07:23:36;;;;;;;;;;;14.10;99.90;;;;;;5092694;28;24086;-73
2023/07/23 07:26:03;;;;;;;;;;;14.00;99.90;;;;;;5093125;28;19947;-73
2023/07/23 07:28:30;;;;;;;;;;;14.00;99.90;;;;;;5092765;28;20281;-74
2023/07/23 07:31:01;;;;;;;;;;;13.90;99.90;;;;;;5092709;28;20026;-74
2023/07/23 07:33:28;;;;;;;;;;;13.80;99.90;;;;;;5092951;28;20257;-73
2023/07/23 07:35:58;;;;;;;;;;;13.70;99.90;;;;;;5092823;28;24136;-74
2023/07/23 07:38:26;;;;;;;;;;;13.60;99.90;;;;;;5092522;28;24088;-73
2023/07/23 07:40:53;;;;;;;;;;;13.60;99.90;;;;;;5092704;28;24148;-72
2023/07/23 07:43:19;;;;;;;;;;;13.70;99.90;;;;;;5092464;28;19977;-73
2023/07/23 07:45:50;;;;;;;;;;;13.70;99.90;;;;;;5074361;28;19904;-73
2023/07/23 07:48:20;;;;;;;;;;;13.70;99.90;;;;;;5092212;28;19904;-73
2023/07/23 07:50:48;;;;;;;;;;;13.60;99.90;;;;;;5093039;28;19947;-73
2023/07/23 07:53:16;;;;;;;;;;;13.60;99.90;;;;;;5092758;28;20036;-72
2023/07/23 07:55:43;;;;;;;;;;;13.70;99.90;;;;;;5092435;28;24062;-74
2023/07/23 07:58:13;;;;;;;;;;;13.70;99.90;;;;;;5092356;28;20257;-73
2023/07/23 08:00:41;;;;;;;;;;;13.70;99.90;;;;;;5072323;28;19912;-72
2023/07/23 08:03:08;;;;;;;;;;;13.80;99.90;;;;;;5072236;28;19959;-73
2023/07/23 08:05:35;;;;;;;;;;;13.70;99.90;;;;;;5086087;28;25137;-73
2023/07/23 08:08:04;;;;;;;;;;;13.60;99.90;;;;;;5092386;28;19961;-72
2023/07/23 08:10:33;;;;;;;;;;;13.60;99.90;;;;;;5092261;28;24053;-74
2023/07/23 08:13:01;;;;;;;;;;;13.50;99.90;;;;;;5091279;28;19964;-74
2023/07/23 08:15:29;;;;;;;;;;;13.40;99.90;;;;;;5092296;28;19915;-74
2023/07/23 08:17:56;;;;;;;;;;;13.40;99.90;;;;;;5092139;28;19913;-73
2023/07/23 08:20:23;;;;;;;;;;;13.30;99.90;;;;;;5073778;28;19912;-73
2023/07/23 08:22:51;;;;;;;;;;;13.30;99.90;;;;;;5092434;28;25122;-73
2023/07/23 08:25:18;;;;;;;;;;;13.30;99.90;;;;;;5093370;28;20006;-74
2023/07/23 08:27:46;;;;;;;;;;;13.20;99.90;;;;;;5093134;28;19918;-73
2023/07/23 08:30:12;;;;;;;;;;;13.20;99.90;;;;;;5092179;28;19961;-74
2023/07/23 08:32:40;;;;;;;;;;;13.20;99.90;;;;;;5093221;28;19974;-73
2023/07/23 08:35:07;;;;;;;;;;;13.20;99.90;;;;;;5075364;28;19908;-73
2023/07/23 08:37:34;;;;;;;;;;;13.20;99.90;;;;;;5093003;28;19904;-74
2023/07/23 08:40:00;;;;;;;;;;;13.20;99.90;;;;;;5092955;28;19915;-74
2023/07/23 08:42:40;;;;;;;;;;;13.20;99.90;;;;;;5078259;28;20003;-74
2023/07/23 08:45:10;;;;;;;;;;;13.30;99.90;;;;;;5094008;28;19911;-73
2023/07/23 08:47:37;;;;;;;;;;;13.20;99.90;;;;;;5093224;28;24099;-74
2023/07/23 08:50:04;;;;;;;;;;;13.20;99.90;;;;;;5074934;28;20311;-73
2023/07/23 08:52:31;;;;;;;;;;;13.10;99.90;;;;;;5093119;28;19949;-73
2023/07/23 08:54:58;;;;;;;;;;;13.10;99.90;;;;;;5092944;28;24102;-73
2023/07/23 08:57:25;;;;;;;;;;;13.00;99.90;;;;;;5092951;28;20258;-72
2023/07/23 08:59:53;;;;;;;;;;;12.90;99.90;;;;;;5093596;28;24062;-73
2023/07/23 09:02:20;;;;;;;;;;;12.90;99.90;;;;;;5092868;28;19919;-73
2023/07/23 09:04:47;;;;;;;;;;;12.80;99.90;;;;;;5082292;28;19915;-72
2023/07/23 09:07:15;;;;;;;;;;;12.70;99.90;;;;;;5086215;28;19934;-73
2023/07/23 09:09:42;;;;;;;;;;;12.70;99.90;;;;;;5087745;28;19908;-72
2023/07/23 09:12:08;;;;;;;;;;;12.60;99.90;;;;;;5093300;28;19908;-73
2023/07/23 09:14:42;;;;;;;;;;;12.40;99.90;;;;;;5092526;28;20003;-74
2023/07/23 09:17:19;;;;;;;;;;;12.40;99.90;;;;;;5084300;28;24067;-74
2023/07/23 09:19:46;;;;;;;;;;;12.30;99.90;;;;;;5089185;28;19904;-73
2023/07/23 09:22:12;;;;;;;;;;;12.20;99.90;;;;;;5092640;28;20311;-73
2023/07/23 09:24:39;;;;;;;;;;;12.20;99.90;;;;;;5096140;28;24068;-72
2023/07/23 09:27:10;;;;;;;;;;;12.20;99.90;;;;;;5098493;28;19953;-73
2023/07/23 09:29:38;;;;;;;;;;;12.30;99.90;;;;;;5099429;28;20002;-74
2023/07/23 09:32:05;;;;;;;;;;;12.20;99.90;;;;;;5099198;28;24051;-73
2023/07/23 09:34:33;;;;;;;;;;;12.10;99.90;;;;;;5098515;28;24117;-74
2023/07/23 09:37:00;;;;;;;;;;;12.10;99.90;;;;;;5098556;28;19915;-74
2023/07/23 09:39:27;;;;;;;;;;;12.00;99.90;;;;;;5080362;28;19962;-74
2023/07/23 09:41:54;;;;;;;;;;;11.90;99.90;;;;;;5098596;28;19955;-74
2023/07/23 09:44:24;;;;;;;;;;;11.90;99.90;;;;;;5099053;28;19904;-73
2023/07/23 09:46:51;;;;;;;;;;;11.80;99.90;;;;;;5098917;28;24140;-74
2023/07/23 09:49:23;;;;;;;;;;;11.90;99.90;;;;;;5074027;28;20338;-72
2023/07/23 09:51:51;;;;;;;;;;;11.90;99.90;;;;;;5088231;28;19954;-73
2023/07/23 09:54:18;;;;;;;;;;;12.00;99.90;;;;;;5091274;28;19968;-72
2023/07/23 09:56:45;;;;;;;;;;;12.00;99.90;;;;;;5082917;28;19908;-73
2023/07/23 09:59:12;;;;;;;;;;;12.00;99.90;;;;;;5080658;28;20451;-72
2023/07/23 10:01:39;;;;;;;;;;;12.00;99.90;;;;;;5098206;28;19908;-73
2023/07/23 10:04:06;;;;;;;;;;;12.00;99.90;;;;;;5099110;28;19995;-74
2023/07/23 10:06:33;;;;;;;;;;;12.00;99.90;;;;;;5098484;28;20360;-73
2023/07/23 10:09:02;;;;;;;;;;;12.10;99.90;;;;;;5099100;28;20303;-73
2023/07/23 10:11:28;;;;;;;;;;;12.10;99.90;;;;;;5098491;28;19908;-73
2023/07/23 10:13:55;;;;;;;;;;;12.20;99.90;;;;;;5098774;28;19991;-74
2023/07/23 10:16:23;;;;;;;;;;;12.20;99.90;;;;;;5098725;28;24095;-73
2023/07/23 10:18:51;;;;;;;;;;;12.20;99.90;;;;;;5097412;28;19912;-73
2023/07/23 10:21:20;;;;;;;;;;;12.20;99.90;;;;;;5098436;28;19904;-73
2023/07/23 10:23:55;;;;;;;;;;;12.20;99.90;;;;;;5098470;28;24079;-73
2023/07/23 10:26:27;;;;;;;;;;;12.20;99.90;;;;;;5098331;28;19904;-73
2023/07/23 10:28:58;;;;;;;;;;;12.30;99.90;;;;;;5098147;28;19908;-74
2023/07/23 10:31:26;;;;;;;;;;;12.30;99.90;;;;;;5098448;28;24043;-73
2023/07/23 10:33:53;;;;;;;;;;;12.30;99.90;;;;;;5098836;28;19998;-72
2023/07/23 10:36:22;;;;;;;;;;;12.30;99.90;;;;;;5078032;28;20269;-72
2023/07/23 10:39:08;;;;;;;;;;;12.30;99.90;;;;;;5095130;28;20025;-72
2023/07/23 10:41:46;;;;;;;;;;;12.20;99.90;;;;;;5063099;28;19966;-72
2023/07/23 10:44:20;;;;;;;;;;;12.20;99.90;;;;;;5095108;28;19915;-72
2023/07/23 10:46:46;;;;;;;;;;;12.10;99.90;;;;;;5093339;28;24106;-71
2023/07/23 10:49:18;;;;;;;;;;;12.20;99.90;;;;;;5077293;28;19912;-72
2023/07/23 10:51:45;;;;;;;;;;;12.20;99.90;;;;;;5075063;28;25116;-70
2023/07/23 10:54:12;;;;;;;;;;;12.20;99.90;;;;;;5078044;28;19908;-72
2023/07/23 10:56:40;;;;;;;;;;;12.30;99.90;;;;;;5094902;28;19914;-73
2023/07/23 10:59:10;;;;;;;;;;;12.30;99.90;;;;;;5094497;28;25131;-72
2023/07/23 11:01:42;;;;;;;;;;;12.30;99.90;;;;;;5094271;28;20246;-71
2023/07/23 11:04:10;;;;;;;;;;;12.40;99.90;;;;;;5094766;28;25129;-71
2023/07/23 11:06:37;;;;;;;;;;;12.50;99.90;;;;;;5094819;28;19947;-73
2023/07/23 11:09:05;;;;;;;;;;;12.60;99.90;;;;;;5094701;28;24166;-73
2023/07/23 11:11:35;;;;;;;;;;;12.60;99.90;;;;;;5094745;28;19904;-72
2023/07/23 11:14:02;;;;;;;;;;;12.60;99.90;;;;;;5094104;28;19904;-72
2023/07/23 11:16:29;;;;;;;;;;;12.60;99.90;;;;;;5093802;28;19946;-73
2023/07/23 11:18:57;;;;;;;;;;;12.60;99.90;;;;;;5066246;28;25053;-73
2023/07/23 11:21:27;;;;;;;;;;;12.60;99.90;;;;;;5083413;28;20326;-72
2023/07/23 11:23:54;;;;;;;;;;;12.60;99.90;;;;;;5094082;28;25061;-73
2023/07/23 11:26:22;;;;;;;;;;;12.60;99.90;;;;;;5092117;28;19911;-72
2023/07/23 11:28:50;;;;;;;;;;;12.60;99.90;;;;;;5084294;28;24059;-72
2023/07/23 11:31:16;;;;;;;;;;;12.60;99.90;;;;;;5079117;28;19911;-72
2023/07/23 11:33:43;;;;;;;;;;;12.60;99.90;;;;;;5074036;28;19908;-72
2023/07/23 11:36:10;;;;;;;;;;;12.60;99.90;;;;;;5074179;28;19912;-72
2023/07/23 11:38:36;;;;;;;;;;;12.50;99.90;;;;;;5090149;28;24105;-73
2023/07/23 11:41:03;;;;;;;;;;;12.50;99.90;;;;;;5093838;28;20004;-73
2023/07/23 11:43:33;;;;;;;;;;;12.40;99.90;;;;;;5093454;28;19939;-72
2023/07/23 11:45:59;;;;;;;;;;;12.40;99.90;;;;;;5093996;28;24070;-72
2023/07/23 11:48:26;;;;;;;;;;;12.30;99.90;;;;;;5092567;28;24108;-73
2023/07/23 11:50:54;;;;;;;;;;;12.30;99.90;;;;;;5093673;28;19908;-72
2023/07/23 11:53:31;;;;;;;;;;;12.20;99.90;;;;;;5075643;28;20249;-73
2023/07/23 11:56:07;;;;;;;;;;;12.30;99.90;;;;;;5093866;28;19927;-73
2023/07/23 11:58:35;;;;;;;;;;;12.20;99.90;;;;;;5074889;28;20361;-73
2023/07/23 12:01:03;;;;;;;;;;;12.20;99.90;;;;;;5093987;28;19904;-72
2023/07/23 12:03:32;;;;;;;;;;;12.10;99.90;;;;;;5093963;28;24138;-72
2023/07/23 12:05:59;;;;;;;;;;;12.00;99.90;;;;;;5092868;28;24156;-72
2023/07/23 12:08:30;;;;;;;;;;;12.00;99.90;;;;;;5093611;28;19914;-72
2023/07/23 12:10:57;;;;;;;;;;;12.00;99.90;;;;;;5092089;28;20003;-72
2023/07/23 12:13:27;;;;;;;;;;;12.00;99.90;;;;;;5084480;28;24070;-74
2023/07/23 12:15:57;;;;;;;;;;;12.10;99.90;;;;;;5093017;28;19904;-73
2023/07/23 12:18:27;;;;;;;;;;;12.10;99.90;;;;;;5093580;28;25143;-73
2023/07/23 12:20:58;;;;;;;;;;;12.20;99.90;;;;;;5093314;28;19904;-72
2023/07/23 12:23:25;;;;;;;;;;;12.20;99.90;;;;;;5093085;28;25098;-72
2023/07/23 12:25:52;;;;;;;;;;;12.20;99.90;;;;;;5094047;28;19904;-73
2023/07/23 12:28:18;;;;;;;;;;;12.30;99.90;;;;;;5093462;28;24060;-72
2023/07/23 12:30:45;;;;;;;;;;;12.30;99.90;;;;;;5093506;28;20277;-73
2023/07/23 12:33:12;;;;;;;;;;;12.30;99.90;;;;;;5092588;28;25130;-73
2023/07/23 12:35:38;;;;;;;;;;;12.40;99.90;;;;;;5086021;28;25165;-72
2023/07/23 12:38:05;;;;;;;;;;;12.30;99.90;;;;;;5090004;28;19908;-72
2023/07/23 12:40:32;;;;;;;;;;;12.30;99.90;;;;;;5074409;28;20254;-71
2023/07/23 12:42:58;;;;;;;;;;;12.20;99.90;;;;;;5073557;28;25132;-72
2023/07/23 12:45:25;;;;;;;;;;;12.10;99.90;;;;;;5092585;28;20266;-72
2023/07/23 12:47:52;;;;;;;;;;;12.00;99.90;;;;;;5093005;28;20269;-73
2023/07/23 12:50:18;;;;;;;;;;;11.90;99.90;;;;;;5074958;28;19911;-73
2023/07/23 12:52:45;;;;;;;;;;;11.80;99.90;;;;;;5092701;28;24065;-72
2023/07/23 12:55:12;;;;;;;;;;;11.80;99.90;;;;;;5092336;28;20437;-72
2023/07/23 12:57:39;;;;;;;;;;;11.70;99.90;;;;;;5092397;28;24071;-71
2023/07/23 13:00:06;;;;;;;;;;;11.70;99.90;;;;;;5091844;28;19912;-73
2023/07/23 13:02:33;;;;;;;;;;;11.60;99.90;;;;;;5091889;28;24071;-72
2023/07/23 13:05:00;;;;;;;;;;;11.50;99.90;;;;;;5092403;28;19981;-73
2023/07/23 13:07:26;;;;;;;;;;;11.50;99.90;;;;;;5091964;28;20098;-72
2023/07/23 13:09:53;;;;;;;;;;;11.50;99.90;;;;;;5092752;28;19953;-73
2023/07/23 13:12:20;;;;;;;;;;;11.50;99.90;;;;;;5092358;28;19931;-72
2023/07/23 13:14:46;;;;;;;;;;;11.50;99.90;;;;;;5092180;28;19908;-72
2023/07/23 13:17:13;;;;;;;;;;;11.50;99.90;;;;;;5092459;28;19908;-71
2023/07/23 13:19:40;;;;;;;;;;;11.50;99.90;;;;;;5092556;28;24106;-72
2023/07/23 13:22:07;;;;;;;;;;;11.40;99.90;;;;;;5091528;28;19919;-72
2023/07/23 13:24:34;;;;;;;;;;;11.30;99.90;;;;;;5091320;28;24052;-70
2023/07/23 13:27:00;;;;;;;;;;;11.20;99.90;;;;;;5092017;28;19915;-70
2023/07/23 13:29:27;;;;;;;;;;;11.20;99.90;;;;;;5092344;28;20280;-71
2023/07/23 13:31:54;;;;;;;;;;;11.10;99.90;;;;;;5092034;28;24875;-71
2023/07/23 13:34:20;;;;;;;;;;;11.10;99.90;;;;;;5091756;28;19914;-70
2023/07/23 13:36:47;;;;;;;;;;;11.10;99.90;;;;;;5092030;28;19916;-72
2023/07/23 13:39:14;;;;;;;;;;;11.10;99.90;;;;;;5092416;28;19914;-70
2023/07/23 13:41:41;;;;;;;;;;;11.20;99.90;;;;;;5092341;28;19961;-71
2023/07/23 13:44:07;;;;;;;;;;;11.30;99.90;;;;;;5091863;28;19911;-70
2023/07/23 13:46:34;;;;;;;;;;;11.30;99.90;;;;;;5091605;28;19994;-71
2023/07/23 13:49:00;;;;;;;;;;;11.40;99.90;;;;;;5092318;28;19961;-71
2023/07/23 13:51:27;;;;;;;;;;;11.40;99.90;;;;;;5092207;28;20238;-71
2023/07/23 13:53:54;;;;;;;;;;;11.40;99.90;;;;;;5092106;28;19930;-71
2023/07/23 13:56:20;;;;;;;;;;;11.40;99.90;;;;;;5092280;28;24137;-71
2023/07/23 13:58:47;;;;;;;;;;;11.40;99.90;;;;;;5091744;28;24132;-72
2023/07/23 14:01:14;;;;;;;;;;;11.50;99.90;;;;;;5091160;28;20268;-72
2023/07/23 14:03:40;;;;;;;;;;;11.50;99.90;;;;;;5090951;28;20268;-72
2023/07/23 14:06:07;;;;;;;;;;;11.50;99.90;;;;;;5092045;28;20350;-72
2023/07/23 14:08:34;;;;;;;;;;;11.50;99.90;;;;;;5092315;28;20254;-71
2023/07/23 14:11:00;;;;;;;;;;;11.50;99.90;;;;;;5092699;28;25118;-72
2023/07/23 14:13:27;;;;;;;;;;;11.50;99.90;;;;;;5076504;28;25053;-71
2023/07/23 14:15:54;;;;;;;;;;;11.60;99.90;;;;;;5095616;28;19915;-73
2023/07/23 14:18:21;;;;;;;;;;;11.60;99.90;;;;;;5077587;28;20297;-73
2023/07/23 14:20:47;;;;;;;;;;;11.50;99.90;;;;;;5095711;28;20281;-72